Etusivu
METAR-TAF:

METAR-TAF

Lentoasemat :

Providenciales, Turks- ja Caicossaaret

Leveyspiiri: 21-46-25N, Pituuspiiri: 072-15-57W, korkeus merenpinnasta: 5 m

Tämänhetkinen sää

Tämä raportti tehtiin 10 tuntia ja 4 minuuttia sitten, kello 22.00 UTC
Tuuli 5 kn idästä/koillisesta
Lämpötila 27°C
Kosteus 70%
Ilmanpaine 1014 hPa
Näkyvyys 10 km tai enemmän
Hajanaisia pilviä 1200 ft:n korkeudessa

METAR: MBPV 242200Z 07005KT 9999 SCT012 27/21 Q1014

Aika: 04:04 (08:04 UTC)

Sääennuste

Tämä raportti tehtiin 3 tuntia ja 34 minuuttia sitten, kello 04.30 UTC
Ennuste voimassa 25. päivästä klo 06 UTC - 26. päivään klo 06 UTC
Tuuli 10 kn idästä puuskistuen 20 kn:hen
Näkyvyys 10 km tai enemmän
Muutamia pilviä 2000 ft:n korkeudessa

TAF: MBPV 250430Z 2506/2606 09010G20KT 9999 FEW020

Säähavainnot ja -ennusteet yli 4000 lentoasemalta (METAR- ja TAF-raportit).

Käytössä olevat sääasemat on merkitty karttaan keltaisilla ja punaisilla pisteillä.

Aseta hiiri pisteen päälle nähdäksesi sääaseman nimen.

Klikkaa sitten nähdäksesi säähavainnot ja -ennusteet.

Kartan vaihtaminen: klikkaa mustalla rastilla varustettuja vihreitä pisteitä, niin voit zoomata sisään; viivalla varustettua vihreää pistettä, niin voit zoomata ulos tai vihreitä nuolia, niin pääset viereisille kartoille.


METAR-TAF: